Topaz, CA

7:54 AM PST on December 28, 2014 (GMT -0800)
Walker | Change Station
CLOSE
Current Station
Personal Weather Station
Location: Coleville, CA
Elevation: 5499 ft
Nearby Weather Stations

Elev 5499 ft 38.53 °N, 119.46 °W | Updated 13 seconds ago

Partly Cloudy
Partly Cloudy
35.2 °F
Feels Like 35 °F
N
0.9
Wind Variable Wind from NNW
Gusts 2.5 mph

Today
High -- | Low -- °F
--% Chance of Precip.
Yesterday
High -- | Low -- °F
Precip. -- in
7:15 AM 4:44 PM
Waxing Crescent, 49% visible
Pressure 30.29 in
Visibility -9999.0 miles
Clouds Few 5000 ft
Windchill 35 °F
Dew Point 18 °F
Humidity 48%
Rainfall 0.00 in
Snow Depth Not available.
UV 1.0 out of 12
Pollen .30 out of 12
Air Quality Not available.
Flu Activity Not available.
METAR KBAN 281552Z AUTO 00000KT FEW050 M07/M11 A3019 RMK AO2 SLP256 T10721111 FZRANO $

More Conditions Fewer Conditions

Pressure 30.29 in
Visibility -9999.0 miles
Clouds Few 5000 ft
Windchill 35 °F
Dew Point 18 °F
Humidity 48%
Rainfall 0.00 in
Snow Depth Not available.
UV 1.0 out of 12
Pollen .30 out of 12
Air Quality Not available.
Flu Activity Not available.
METAR KBAN 281552Z AUTO 00000KT FEW050 M07/M11 A3019 RMK AO2 SLP256 T10721111 FZRANO $

More Conditions Fewer Conditions

10-Day Weather Forecast

Almanac

Astronomy

Dec. 28, 2014 Rise Set
Actual Time
Civil Twilight
Nautical Twilight
Astronomical Twilight
Moon
Length of Visible Light
Length of Day
Tomorrow will be .
, % of the Moon is Illuminated

Today's Extremes

State Highs State Lows

Community

WunderPhotos

Upload Photos

1,781,309 photos uploaded!

WunderBlogs® & News

Nearby

Air Quality

  Air Quality AQ Index Pollutant
Not available.

Snow Depth

Station Depth Elevation

Earthquake Activity

City Distance Mag. Time & Date
Minimum magnitude displayed is 2.5.

Coastal Water Temperatures

Place Temperature

Nearby Weather Stations